Paradise Valley, Nevada Weather observations

Data are for 10 minute period ending at time listed.
 Day   Time   Solar   Ave.   Ave.  Ave.  Vector  Max.   Baro.   Total    
  of    of     Rad.   Air    Rel.  Wind   Wind   Wind  Press.  Precip.   
Year   Day            Temp.  Hum.  Speed  Dir.   Gust                    
2017   (PST)  Kw/m2    F      %     mph   deg.    mph    mb.     in.     
-------------------------------------------------------------------------
  58    4:00   0.00   23.4    88   12.4   179    17.8   854.0    0.00 
  58    4:10   0.00   22.9    88   12.4   216    15.9   854.2    0.00 
  58    4:20   0.00   23.4    88   11.1   226    14.5   854.2    0.00 
  58    4:30   0.00   23.8    87   10.7   231    15.9   854.4    0.00 
  58    4:40   0.00   23.9    83   10.1   236    14.5   854.6    0.00 
  58    4:50   0.00   24.4    79    8.9   236    14.2   854.7    0.00 
  58    5:00   0.00   24.3    79    8.1   238    12.3   854.7    0.00 
  58    5:10   0.00   24.4    77    7.1   231    10.7   854.8    0.00 
  58    5:20   0.00   24.5    75    4.6   210     8.4   854.9    0.00 
  58    5:30   0.00   24.9    73    3.7   148     7.5   855.1    0.00 
  58    5:40   0.00   25.5    71    4.6   122     8.0   855.1    0.00 
  58    5:50   0.00   25.0    73    5.9   174     9.6   855.1    0.00 
  58    6:00   0.00   24.4    77    8.1   185     9.6   855.1    0.00 
  58    6:10   0.00   24.5    76    9.1   183    13.9   855.2    0.00 
  58    6:20   0.00   24.4    78    9.2   187    15.0   855.4    0.00 
  58    6:30   0.00   24.5    76    8.1   185    14.3   855.4    0.00 
  58    6:40   0.01   24.6    73    6.7   196    14.1   855.5    0.00 
  58    6:50   0.02   24.1    75    7.6   183    11.8   855.6    0.00 
  58    7:00   0.03   25.3    68    6.4   220    13.4   855.7    0.00 
  58    7:10   0.04   23.8    75    6.4   222    10.7   855.9    0.00 
  58    7:20   0.05   23.2    77    7.7   221    13.3   856.1    0.00 
  58    7:30   0.07   22.9    76    7.7   229    10.7   856.1    0.00 
  58    7:40   0.11   22.9    77    9.3   226    11.5   856.2    0.00 
  58    7:50   0.11   23.3    75    9.4   202    12.1   856.4    0.00 
  58    8:00   0.14   22.5    79    7.4   192    11.3   856.6    0.00 
  58    8:10   0.16   23.3    76    9.9   188    13.1   856.8    0.00 
  58    8:20   0.30   24.4    74   12.1   195    17.2   856.9    0.00 
  58    8:30   0.43   25.7    71   10.7   191    14.2   857.0    0.00 
  58    8:40   0.55   27.2    67   10.4   204    17.0   857.1    0.00 
  58    8:50   0.55   27.2    67   12.1   201    17.5   857.1    0.00 
  58    9:00   0.56   27.9    64   10.0   214    15.8   857.3    0.00 
  58    9:10   0.60   27.9    64    9.9   223    13.0   857.3    0.00 
  58    9:20   0.27   27.8    62    5.7   225    10.2   857.4    0.00 
  58    9:30   0.39   29.3    54    2.3   177     4.7   857.6    0.00 
  58    9:40   0.52   29.1    52    2.7    61     5.6   857.8    0.00 
  58    9:50   0.55   29.1    53    3.3    70     5.2   857.8    0.00 
  58   10:00   0.73   28.8    55    4.6    90     6.9   857.9    0.00 
  58   10:10   0.94   29.7    56    4.3   113     8.9   857.9    0.00 
  58   10:20   0.94   30.2    56    6.9   145    12.8   857.9    0.00 
  58   10:30   0.56   30.3    57    8.1   172    11.7   858.0    0.00 
  58   10:40   0.32   29.2    58    6.7   171    11.3   858.1    0.00 
  58   10:50   0.31   28.9    57    5.9   135    10.6   858.1    0.00 
  58   11:00   0.41   29.6    53    8.7   253    14.9   858.1    0.00 
  58   11:10   0.52   29.5    50    4.3   263    11.8   858.2    0.00 
  58   11:20   0.51   30.7    49    5.1   254     9.6   858.3    0.00 
  58   11:30   0.66   30.6    49    5.0   286    12.3   858.4    0.00 
  58   11:40   0.41   30.2    50    5.5   273    10.4   858.4    0.00 
  58   11:50   0.39   30.3    48    2.3   227     5.4   858.2    0.00 
  58   12:00   0.35   30.6    52    4.1   185    12.2   858.1    0.00 
  58   12:10   0.84   31.1    48    2.7   342     8.6   858.1    0.00 
  58   12:20   0.57   31.8    53    8.0   257    15.8   858.1    0.00 
  58   12:30   0.78   31.6    53   11.6   266    19.5   857.9    0.00 
  58   12:40   0.60   32.2    52   12.7   249    17.6   857.8    0.00 
  58   12:50   0.70   31.9    52   11.0   265    16.8   857.6    0.00 
  58   13:00   0.93   33.0    52    9.7   258    19.6   857.5    0.00 
  58   13:10   0.81   32.7    48    9.4   272    19.8   857.5    0.00 
  58   13:20   0.75   32.6    50   10.7   257    17.3   857.4    0.00 
  58   13:30   0.77   32.7    47    9.1   266    15.2   857.5    0.00 
  58   13:40   0.77   32.5    46    7.5   304    17.9   857.5    0.00 
  58   13:50   0.75   32.9    47    7.8   283    18.6   857.5    0.00 
  58   14:00   0.72   32.8    47    7.1   281    15.3   857.6    0.00 
  58   14:10   0.70   33.3    48    9.9   293    16.7   857.6    0.00 
  58   14:20   0.68   33.5    43    4.0   317    12.0   857.6    0.00 
  58   14:30   0.66   33.7    41    3.8   237     7.2   857.6    0.00 
  58   14:40   0.60   33.9    41    5.1   219    11.8   857.7    0.00 
  58   14:50   0.70   33.6    41    5.6   323    10.7   857.7    0.00 
  58   15:00   0.65   33.7    41    7.0   335    13.7   857.7    0.00 
  58   15:10   0.47   33.4    39    6.8   274    13.4   857.8    0.00 
  58   15:20   0.43   33.6    40    7.7   304    12.9   857.9    0.00 
  58   15:30   0.39   33.1    38    4.8   304     9.3   858.0    0.00 
  58   15:40   0.12   32.7    36    1.4   337     3.4   858.1    0.00 
  58   15:50   0.13   32.5    37    1.2   200     7.2   858.1    0.00 
  58   16:00   0.14   32.3    44    5.1   255     7.5   858.0    0.00 
  58   16:10   0.09   32.0    44    5.5   289     8.8   858.0    0.00 
  58   16:20   0.10   31.9    45    6.3   271    12.3   858.0    0.00 
  58   16:30   0.09   31.7    47    9.4   254    15.1   858.0    0.00 
  58   16:40   0.19   32.3    47    7.8   260    12.6   858.0    0.00 
  58   16:50   0.09   32.3    46    8.5   253    12.4   858.0    0.00 
  58   17:00   0.06   31.7    49   12.5   252    18.8   857.9    0.00 
  58   17:10   0.07   31.3    50   10.3   258    14.6   858.0    0.00 
  58   17:20   0.04   31.4    51   10.5   260    16.7   858.1    0.00 
  58   17:30   0.02   31.1    50   12.5   263    16.8   858.1    0.00 
  58   17:40   0.01   30.8    51   10.6   254    15.9   858.2    0.00 
  58   17:50   0.00   30.8    52    8.5   256    11.1   858.3    0.00 
  58   18:00   0.00   30.4    54    9.4   253    14.2   858.4    0.00 
  58   18:10   0.00   30.7    53   11.2   261    15.0   858.4    0.00 
  58   18:20   0.00   29.9    57    7.8   250    10.4   858.5    0.00 
  58   18:30   0.00   29.1    60    8.4   246    11.8   858.6    0.00 
  58   18:40   0.00   28.4    63    8.1   252     9.7   858.6    0.00 
  58   18:50   0.00   28.0    65    8.9   258    11.0   858.6    0.00 
  58   19:00   0.00   27.8    65    8.6   247    10.0   858.6    0.00 
  58   19:10   0.00   27.1    68    7.6   243     9.0   858.6    0.00 
  58   19:20   0.00   26.6    70    7.8   244     9.6   858.7    0.00 
  58   19:30   0.00   27.2    67    8.3   243     9.6   858.8    0.00 
  58   19:40   0.00   27.5    66    7.6   245     9.1   858.8    0.00 
  58   19:50   0.00   27.4    66    7.6   241     8.9   858.9    0.00 
  58   20:00   0.00   27.4    68    7.5   231     8.8   858.9    0.00 
  58   20:10   0.00   27.2    69    8.3   232     9.7   858.9    0.00 
  58   20:20   0.00   27.2    68    9.1   234    10.4   859.0    0.00 
  58   20:30   0.00   27.2    68    8.2   234     9.9   859.0    0.00 
  58   20:40   0.00   27.5    67    8.1   234     9.6   859.0    0.00 
  58   20:50   0.00   27.2    68    8.1   230    10.0   859.0    0.00 
  58   21:00   0.00   26.8    68    9.3   230    11.2   858.9    0.00 
  58   21:10   0.00   26.8    67    9.3   235    12.2   858.9    0.00 
  58   21:20   0.00   27.1    66    9.6   236    12.9   858.8    0.00 
  58   21:30   0.00   27.3    65    9.2   239    12.1   858.8    0.00 
  58   21:40   0.00   26.8    66    5.6   232     8.3   858.9    0.00 
  58   21:50   0.00   26.4    69    2.6   195     6.1   859.0    0.00 
  58   22:00   0.00   25.7    73    4.4   151     8.9   859.0    0.00 
  58   22:10   0.00   27.1    64    6.2   147    10.9   858.9    0.00 
  58   22:20   0.00   27.5    63    4.8   171     7.5   858.9    0.00 
  58   22:30   0.00   27.0    67    4.9   191     7.0   858.9    0.00 
  58   22:40   0.00   26.1    72    5.5   163     7.4   858.9    0.00 
  58   22:50   0.00   25.8    73    5.2   163     8.1   858.9    0.00 
  58   23:00   0.00   26.4    69    6.1   163     9.3   858.9    0.00 
  58   23:10   0.00   27.0    65    6.6   157    12.3   858.9    0.00 
  58   23:20   0.00   27.0    66    8.2   150    12.7   858.9    0.00 
  58   23:30   0.00   26.8    66    5.1   172     6.7   859.0    0.00 
  58   23:40   0.00   26.4    70    4.8   180     6.1   859.0    0.00 
  58   23:50   0.00   27.1    67    6.3   219    11.5   859.0    0.00 
  59    0:00   0.00   28.8    60    9.4   232    12.9   858.9    0.00 
  59    0:10   0.00   28.8    60    8.6   222    11.1   858.8    0.00 
  59    0:20   0.00   28.7    60    7.7   230    10.6   858.9    0.00 
  59    0:30   0.00   29.1    58    9.0   235    11.8   858.9    0.00 
  59    0:40   0.00   29.0    59    9.2   231    12.5   858.8    0.00 
  59    0:50   0.00   29.2    58   10.3   230    13.3   858.9    0.00 
  59    1:00   0.00   29.4    57   10.1   226    13.4   859.0    0.00 
  59    1:10   0.00   29.3    58   10.2   220    12.9   859.0    0.00 
  59    1:20   0.00   29.3    59    8.7   222    12.8   859.1    0.00 
  59    1:30   0.00   29.3    60    7.3   224     9.5   859.2    0.00 
  59    1:40   0.00   29.2    62    5.7   232     7.5   859.3    0.00 
  59    1:50   0.00   29.2    62    5.9   234     9.7   859.3    0.00 
  59    2:00   0.00   29.1    60    9.4   224    12.1   859.3    0.00 
  59    2:10   0.00   28.9    61    8.5   211    14.2   859.4    0.00 
  59    2:20   0.00   28.8    62    7.7   205    13.1   859.5    0.00 
  59    2:30   0.00   29.0    64    7.8   203    14.5   859.4    0.00 
  59    2:40   0.00   29.2    66   12.2   226    18.4   859.3    0.00 
  59    2:50   0.00   29.2    67   10.8   227    15.1   859.4    0.00 
  59    3:00   0.00   28.9    69    8.2   229    10.9   859.5    0.00 
  59    3:10   0.00   28.8    69    9.1   220    14.2   859.6    0.00 
  59    3:20   0.00   28.6    70    9.2   221    13.4   859.6    0.00 
  59    3:30   0.00   28.8    70   10.9   229    16.2   859.6    0.00 
  59    3:40   0.00   28.7    72   10.1   225    15.5   859.6    0.00 
  59    3:50   0.00   28.7    71   10.3   225    14.4   859.6    0.00 

Return to Paradise Valley graphs page.


Western Regional Climate Center,wrcc@dri.edu